sensor_id;sensor_type;location;lat;lon;timestamp;temperature;humidity
20670;DHT22;10494;50.868;4.180;2024-01-07T00:01:26;4.60;99.90
20670;DHT22;10494;50.868;4.180;2024-01-07T00:03:52;4.50;99.90
20670;DHT22;10494;50.868;4.180;2024-01-07T00:06:18;4.50;99.90
20670;DHT22;10494;50.868;4.180;2024-01-07T00:08:43;4.50;99.90
20670;DHT22;10494;50.868;4.180;2024-01-07T00:11:09;4.60;99.90
20670;DHT22;10494;50.868;4.180;2024-01-07T00:13:35;4.60;99.90
20670;DHT22;10494;50.868;4.180;2024-01-07T00:16:01;4.40;99.90
20670;DHT22;10494;50.868;4.180;2024-01-07T00:18:27;4.40;99.90
20670;DHT22;10494;50.868;4.180;2024-01-07T00:20:53;4.20;99.90
20670;DHT22;10494;50.868;4.180;2024-01-07T00:23:18;3.90;99.90
20670;DHT22;10494;50.868;4.180;2024-01-07T00:25:46;3.50;99.90
20670;DHT22;10494;50.868;4.180;2024-01-07T00:28:12;3.50;99.90
20670;DHT22;10494;50.868;4.180;2024-01-07T00:30:38;3.50;99.90
20670;DHT22;10494;50.868;4.180;2024-01-07T00:33:04;3.70;99.90
20670;DHT22;10494;50.868;4.180;2024-01-07T00:35:30;3.70;99.90
20670;DHT22;10494;50.868;4.180;2024-01-07T00:37:55;3.90;99.90
20670;DHT22;10494;50.868;4.180;2024-01-07T00:40:23;4.00;99.90
20670;DHT22;10494;50.868;4.180;2024-01-07T00:42:48;3.90;99.90
20670;DHT22;10494;50.868;4.180;2024-01-07T00:45:14;3.80;99.90
20670;DHT22;10494;50.868;4.180;2024-01-07T00:47:40;3.80;99.90
20670;DHT22;10494;50.868;4.180;2024-01-07T00:50:05;3.60;99.90
20670;DHT22;10494;50.868;4.180;2024-01-07T00:52:31;3.60;99.90
20670;DHT22;10494;50.868;4.180;2024-01-07T00:54:57;3.50;99.90
20670;DHT22;10494;50.868;4.180;2024-01-07T00:57:22;3.40;99.90
20670;DHT22;10494;50.868;4.180;2024-01-07T00:59:48;3.30;99.90
20670;DHT22;10494;50.868;4.180;2024-01-07T01:02:15;3.20;99.90
20670;DHT22;10494;50.868;4.180;2024-01-07T01:04:41;3.20;99.90
20670;DHT22;10494;50.868;4.180;2024-01-07T01:07:07;3.20;99.90
20670;DHT22;10494;50.868;4.180;2024-01-07T01:09:35;3.10;99.90
20670;DHT22;10494;50.868;4.180;2024-01-07T01:12:01;3.20;99.90
20670;DHT22;10494;50.868;4.180;2024-01-07T01:14:27;3.20;99.90
20670;DHT22;10494;50.868;4.180;2024-01-07T01:16:52;3.20;99.90
20670;DHT22;10494;50.868;4.180;2024-01-07T01:19:18;3.20;99.90
20670;DHT22;10494;50.868;4.180;2024-01-07T01:21:44;3.30;99.90
20670;DHT22;10494;50.868;4.180;2024-01-07T01:24:09;3.30;99.90
20670;DHT22;10494;50.868;4.180;2024-01-07T01:26:35;3.30;99.90
20670;DHT22;10494;50.868;4.180;2024-01-07T01:29:00;3.20;99.90
20670;DHT22;10494;50.868;4.180;2024-01-07T01:31:26;3.30;99.90
20670;DHT22;10494;50.868;4.180;2024-01-07T01:33:51;3.20;99.90
20670;DHT22;10494;50.868;4.180;2024-01-07T01:36:17;3.30;99.90
20670;DHT22;10494;50.868;4.180;2024-01-07T01:38:43;3.30;99.90
20670;DHT22;10494;50.868;4.180;2024-01-07T01:41:08;3.20;99.90
20670;DHT22;10494;50.868;4.180;2024-01-07T01:43:34;3.20;99.90
20670;DHT22;10494;50.868;4.180;2024-01-07T01:46:01;3.20;99.90
20670;DHT22;10494;50.868;4.180;2024-01-07T01:48:27;3.30;99.90
20670;DHT22;10494;50.868;4.180;2024-01-07T01:50:54;3.30;99.90
20670;DHT22;10494;50.868;4.180;2024-01-07T01:53:26;3.30;99.90
20670;DHT22;10494;50.868;4.180;2024-01-07T01:55:52;3.20;99.90
20670;DHT22;10494;50.868;4.180;2024-01-07T01:58:19;3.20;99.90
20670;DHT22;10494;50.868;4.180;2024-01-07T02:00:46;3.20;99.90
20670;DHT22;10494;50.868;4.180;2024-01-07T02:03:11;3.20;99.90
20670;DHT22;10494;50.868;4.180;2024-01-07T02:05:37;3.10;99.90
20670;DHT22;10494;50.868;4.180;2024-01-07T02:08:04;3.20;99.90
20670;DHT22;10494;50.868;4.180;2024-01-07T02:10:30;3.10;99.90
20670;DHT22;10494;50.868;4.180;2024-01-07T02:13:00;3.10;99.90
20670;DHT22;10494;50.868;4.180;2024-01-07T02:15:26;3.00;99.90
20670;DHT22;10494;50.868;4.180;2024-01-07T02:17:51;3.10;99.90
20670;DHT22;10494;50.868;4.180;2024-01-07T02:20:17;3.10;99.90
20670;DHT22;10494;50.868;4.180;2024-01-07T02:22:43;3.10;99.90
20670;DHT22;10494;50.868;4.180;2024-01-07T02:25:08;3.00;99.90
20670;DHT22;10494;50.868;4.180;2024-01-07T02:27:34;3.00;99.90
20670;DHT22;10494;50.868;4.180;2024-01-07T02:30:00;3.00;99.90
20670;DHT22;10494;50.868;4.180;2024-01-07T02:32:25;2.90;99.90
20670;DHT22;10494;50.868;4.180;2024-01-07T02:34:52;3.00;99.90
20670;DHT22;10494;50.868;4.180;2024-01-07T02:37:18;3.00;99.90
20670;DHT22;10494;50.868;4.180;2024-01-07T02:39:44;3.00;99.90
20670;DHT22;10494;50.868;4.180;2024-01-07T02:42:10;2.90;99.90
20670;DHT22;10494;50.868;4.180;2024-01-07T02:44:36;3.00;99.90
20670;DHT22;10494;50.868;4.180;2024-01-07T02:47:01;3.10;99.90
20670;DHT22;10494;50.868;4.180;2024-01-07T02:49:28;3.40;99.90
20670;DHT22;10494;50.868;4.180;2024-01-07T02:51:54;3.30;99.90
20670;DHT22;10494;50.868;4.180;2024-01-07T02:54:19;3.10;99.90
20670;DHT22;10494;50.868;4.180;2024-01-07T02:56:45;3.00;99.90
20670;DHT22;10494;50.868;4.180;2024-01-07T02:59:10;2.80;99.90
20670;DHT22;10494;50.868;4.180;2024-01-07T03:01:36;2.70;99.90
20670;DHT22;10494;50.868;4.180;2024-01-07T03:04:10;2.70;99.90
20670;DHT22;10494;50.868;4.180;2024-01-07T03:06:35;2.60;99.90
20670;DHT22;10494;50.868;4.180;2024-01-07T03:09:01;2.60;99.90
20670;DHT22;10494;50.868;4.180;2024-01-07T03:11:28;2.60;99.90
20670;DHT22;10494;50.868;4.180;2024-01-07T03:13:55;2.60;99.90
20670;DHT22;10494;50.868;4.180;2024-01-07T03:16:22;2.60;99.90
20670;DHT22;10494;50.868;4.180;2024-01-07T03:18:48;2.50;99.90
20670;DHT22;10494;50.868;4.180;2024-01-07T03:21:18;2.50;99.90
20670;DHT22;10494;50.868;4.180;2024-01-07T03:23:44;2.70;99.90
20670;DHT22;10494;50.868;4.180;2024-01-07T03:26:09;2.60;99.90
20670;DHT22;10494;50.868;4.180;2024-01-07T03:28:35;2.60;99.90
20670;DHT22;10494;50.868;4.180;2024-01-07T03:31:08;2.50;99.90
20670;DHT22;10494;50.868;4.180;2024-01-07T03:33:45;2.40;99.90
20670;DHT22;10494;50.868;4.180;2024-01-07T03:36:12;2.30;99.90
20670;DHT22;10494;50.868;4.180;2024-01-07T03:38:39;2.30;99.90
20670;DHT22;10494;50.868;4.180;2024-01-07T03:41:05;2.30;99.90
20670;DHT22;10494;50.868;4.180;2024-01-07T03:43:31;2.30;99.90
20670;DHT22;10494;50.868;4.180;2024-01-07T03:45:57;2.30;99.90
20670;DHT22;10494;50.868;4.180;2024-01-07T03:48:22;2.30;99.90
20670;DHT22;10494;50.868;4.180;2024-01-07T03:50:48;2.30;99.90
20670;DHT22;10494;50.868;4.180;2024-01-07T03:53:15;2.40;99.90
20670;DHT22;10494;50.868;4.180;2024-01-07T03:55:41;2.40;99.90
20670;DHT22;10494;50.868;4.180;2024-01-07T03:58:07;2.30;99.90
20670;DHT22;10494;50.868;4.180;2024-01-07T04:00:33;2.30;99.90
20670;DHT22;10494;50.868;4.180;2024-01-07T04:03:00;2.30;99.90
20670;DHT22;10494;50.868;4.180;2024-01-07T04:05:25;2.30;99.90
20670;DHT22;10494;50.868;4.180;2024-01-07T04:07:51;2.40;99.90
20670;DHT22;10494;50.868;4.180;2024-01-07T04:10:17;2.30;99.90
20670;DHT22;10494;50.868;4.180;2024-01-07T04:12:43;2.30;99.90
20670;DHT22;10494;50.868;4.180;2024-01-07T04:15:09;2.30;99.90
20670;DHT22;10494;50.868;4.180;2024-01-07T04:17:35;2.30;99.90
20670;DHT22;10494;50.868;4.180;2024-01-07T04:20:01;2.30;99.90
20670;DHT22;10494;50.868;4.180;2024-01-07T04:22:26;2.30;99.90
20670;DHT22;10494;50.868;4.180;2024-01-07T04:24:52;2.30;99.90
20670;DHT22;10494;50.868;4.180;2024-01-07T04:27:18;2.30;99.90
20670;DHT22;10494;50.868;4.180;2024-01-07T04:29:44;2.20;99.90
20670;DHT22;10494;50.868;4.180;2024-01-07T04:32:09;2.20;99.90
20670;DHT22;10494;50.868;4.180;2024-01-07T04:34:35;2.20;99.90
20670;DHT22;10494;50.868;4.180;2024-01-07T04:37:00;2.20;99.90
20670;DHT22;10494;50.868;4.180;2024-01-07T04:39:26;2.20;99.90
20670;DHT22;10494;50.868;4.180;2024-01-07T04:41:52;2.20;99.90
20670;DHT22;10494;50.868;4.180;2024-01-07T04:44:17;2.10;99.90
20670;DHT22;10494;50.868;4.180;2024-01-07T04:46:43;2.10;99.90
20670;DHT22;10494;50.868;4.180;2024-01-07T04:49:09;2.10;99.90
20670;DHT22;10494;50.868;4.180;2024-01-07T04:51:34;2.10;99.90
20670;DHT22;10494;50.868;4.180;2024-01-07T04:54:02;2.10;99.90
20670;DHT22;10494;50.868;4.180;2024-01-07T04:56:27;2.10;99.90
20670;DHT22;10494;50.868;4.180;2024-01-07T04:58:53;2.10;99.90
20670;DHT22;10494;50.868;4.180;2024-01-07T05:01:19;2.10;99.90
20670;DHT22;10494;50.868;4.180;2024-01-07T05:03:44;2.20;99.90
20670;DHT22;10494;50.868;4.180;2024-01-07T05:06:10;2.30;99.90
20670;DHT22;10494;50.868;4.180;2024-01-07T05:08:37;2.20;99.90
20670;DHT22;10494;50.868;4.180;2024-01-07T05:11:04;2.30;99.90
20670;DHT22;10494;50.868;4.180;2024-01-07T05:13:30;2.20;99.90
20670;DHT22;10494;50.868;4.180;2024-01-07T05:15:55;2.20;99.90
20670;DHT22;10494;50.868;4.180;2024-01-07T05:18:22;2.20;99.90
20670;DHT22;10494;50.868;4.180;2024-01-07T05:20:48;2.30;99.90
20670;DHT22;10494;50.868;4.180;2024-01-07T05:23:14;2.10;99.90
20670;DHT22;10494;50.868;4.180;2024-01-07T05:25:41;2.00;99.90
20670;DHT22;10494;50.868;4.180;2024-01-07T05:28:07;2.00;99.90
20670;DHT22;10494;50.868;4.180;2024-01-07T05:30:33;2.00;99.90
20670;DHT22;10494;50.868;4.180;2024-01-07T05:32:58;1.90;99.90
20670;DHT22;10494;50.868;4.180;2024-01-07T05:35:24;2.00;99.90
20670;DHT22;10494;50.868;4.180;2024-01-07T05:37:49;2.00;99.90
20670;DHT22;10494;50.868;4.180;2024-01-07T05:40:15;2.00;99.90
20670;DHT22;10494;50.868;4.180;2024-01-07T05:42:41;1.90;99.90
20670;DHT22;10494;50.868;4.180;2024-01-07T05:45:07;1.90;99.90
20670;DHT22;10494;50.868;4.180;2024-01-07T05:47:32;1.90;99.90
20670;DHT22;10494;50.868;4.180;2024-01-07T05:49:58;1.90;99.90
20670;DHT22;10494;50.868;4.180;2024-01-07T05:52:24;1.80;99.90
20670;DHT22;10494;50.868;4.180;2024-01-07T05:54:49;1.80;99.90
20670;DHT22;10494;50.868;4.180;2024-01-07T05:57:15;1.90;99.90
20670;DHT22;10494;50.868;4.180;2024-01-07T05:59:41;1.90;99.90
20670;DHT22;10494;50.868;4.180;2024-01-07T06:02:06;1.90;99.90
20670;DHT22;10494;50.868;4.180;2024-01-07T06:04:32;1.90;99.90
20670;DHT22;10494;50.868;4.180;2024-01-07T06:06:57;2.00;99.90
20670;DHT22;10494;50.868;4.180;2024-01-07T06:09:24;1.90;99.90
20670;DHT22;10494;50.868;4.180;2024-01-07T06:11:50;2.10;99.90
20670;DHT22;10494;50.868;4.180;2024-01-07T06:14:16;2.30;99.90
20670;DHT22;10494;50.868;4.180;2024-01-07T06:16:41;2.10;99.90
20670;DHT22;10494;50.868;4.180;2024-01-07T06:19:08;2.10;99.90
20670;DHT22;10494;50.868;4.180;2024-01-07T06:21:33;2.00;99.90
20670;DHT22;10494;50.868;4.180;2024-01-07T06:23:59;2.00;99.90
20670;DHT22;10494;50.868;4.180;2024-01-07T06:26:24;1.90;99.90
20670;DHT22;10494;50.868;4.180;2024-01-07T06:28:50;1.90;99.90
20670;DHT22;10494;50.868;4.180;2024-01-07T06:31:15;2.10;99.90
20670;DHT22;10494;50.868;4.180;2024-01-07T06:33:41;2.20;99.90
20670;DHT22;10494;50.868;4.180;2024-01-07T06:36:08;2.20;99.90
20670;DHT22;10494;50.868;4.180;2024-01-07T06:38:35;2.10;99.90
20670;DHT22;10494;50.868;4.180;2024-01-07T06:41:00;2.00;99.90
20670;DHT22;10494;50.868;4.180;2024-01-07T06:43:29;2.00;99.90
20670;DHT22;10494;50.868;4.180;2024-01-07T06:45:55;2.10;99.90
20670;DHT22;10494;50.868;4.180;2024-01-07T06:48:22;2.00;99.90
20670;DHT22;10494;50.868;4.180;2024-01-07T06:50:47;1.90;99.90
20670;DHT22;10494;50.868;4.180;2024-01-07T06:53:13;1.90;99.90
20670;DHT22;10494;50.868;4.180;2024-01-07T06:55:39;1.90;99.90
20670;DHT22;10494;50.868;4.180;2024-01-07T06:58:05;1.90;99.90
20670;DHT22;10494;50.868;4.180;2024-01-07T07:00:30;1.90;99.90
20670;DHT22;10494;50.868;4.180;2024-01-07T07:02:56;1.90;99.90
20670;DHT22;10494;50.868;4.180;2024-01-07T07:05:21;1.90;99.90
20670;DHT22;10494;50.868;4.180;2024-01-07T07:07:47;1.90;99.90
20670;DHT22;10494;50.868;4.180;2024-01-07T07:10:13;1.80;99.90
20670;DHT22;10494;50.868;4.180;2024-01-07T07:12:38;1.80;99.90
20670;DHT22;10494;50.868;4.180;2024-01-07T07:15:04;1.90;99.90
20670;DHT22;10494;50.868;4.180;2024-01-07T07:17:30;1.80;99.90
20670;DHT22;10494;50.868;4.180;2024-01-07T07:19:55;1.90;99.90
20670;DHT22;10494;50.868;4.180;2024-01-07T07:22:21;1.90;99.90
20670;DHT22;10494;50.868;4.180;2024-01-07T07:24:48;1.80;99.90
20670;DHT22;10494;50.868;4.180;2024-01-07T07:27:13;1.80;99.90
20670;DHT22;10494;50.868;4.180;2024-01-07T07:29:39;1.80;99.90
20670;DHT22;10494;50.868;4.180;2024-01-07T07:32:05;1.80;99.90
20670;DHT22;10494;50.868;4.180;2024-01-07T07:34:30;1.80;99.90
20670;DHT22;10494;50.868;4.180;2024-01-07T07:36:56;1.90;99.90
20670;DHT22;10494;50.868;4.180;2024-01-07T07:39:22;1.80;99.90
20670;DHT22;10494;50.868;4.180;2024-01-07T07:41:47;1.80;99.90
20670;DHT22;10494;50.868;4.180;2024-01-07T07:44:13;1.80;99.90
20670;DHT22;10494;50.868;4.180;2024-01-07T07:46:39;1.70;99.90
20670;DHT22;10494;50.868;4.180;2024-01-07T07:49:05;1.70;99.90
20670;DHT22;10494;50.868;4.180;2024-01-07T07:51:30;1.70;99.90
20670;DHT22;10494;50.868;4.180;2024-01-07T07:53:56;1.70;99.90
20670;DHT22;10494;50.868;4.180;2024-01-07T07:56:22;1.80;99.90
20670;DHT22;10494;50.868;4.180;2024-01-07T07:58:48;1.90;99.90
20670;DHT22;10494;50.868;4.180;2024-01-07T08:01:14;2.00;99.90
20670;DHT22;10494;50.868;4.180;2024-01-07T08:03:39;1.90;99.90
20670;DHT22;10494;50.868;4.180;2024-01-07T08:06:05;1.90;99.90
20670;DHT22;10494;50.868;4.180;2024-01-07T08:08:31;1.90;99.90
20670;DHT22;10494;50.868;4.180;2024-01-07T08:10:57;1.90;99.90
20670;DHT22;10494;50.868;4.180;2024-01-07T08:13:23;1.90;99.90
20670;DHT22;10494;50.868;4.180;2024-01-07T08:15:48;1.90;99.90
20670;DHT22;10494;50.868;4.180;2024-01-07T08:18:14;1.90;99.90
20670;DHT22;10494;50.868;4.180;2024-01-07T08:20:40;1.90;99.90
20670;DHT22;10494;50.868;4.180;2024-01-07T08:23:05;1.90;99.90
20670;DHT22;10494;50.868;4.180;2024-01-07T08:25:31;1.80;99.90
20670;DHT22;10494;50.868;4.180;2024-01-07T08:27:57;1.80;99.90
20670;DHT22;10494;50.868;4.180;2024-01-07T08:30:23;1.80;99.90
20670;DHT22;10494;50.868;4.180;2024-01-07T08:32:49;1.90;99.90
20670;DHT22;10494;50.868;4.180;2024-01-07T08:35:15;1.90;99.90
20670;DHT22;10494;50.868;4.180;2024-01-07T08:37:40;1.90;99.90
20670;DHT22;10494;50.868;4.180;2024-01-07T08:40:06;2.00;99.90
20670;DHT22;10494;50.868;4.180;2024-01-07T08:42:35;2.00;99.90
20670;DHT22;10494;50.868;4.180;2024-01-07T08:45:01;2.00;99.90
20670;DHT22;10494;50.868;4.180;2024-01-07T08:47:29;2.00;99.90
20670;DHT22;10494;50.868;4.180;2024-01-07T08:49:57;2.00;99.90
20670;DHT22;10494;50.868;4.180;2024-01-07T08:52:23;1.90;99.90
20670;DHT22;10494;50.868;4.180;2024-01-07T08:54:49;2.00;99.90
20670;DHT22;10494;50.868;4.180;2024-01-07T08:57:14;1.90;99.90
20670;DHT22;10494;50.868;4.180;2024-01-07T08:59:40;2.00;99.90
20670;DHT22;10494;50.868;4.180;2024-01-07T09:02:05;2.00;99.90
20670;DHT22;10494;50.868;4.180;2024-01-07T09:04:31;2.00;99.90
20670;DHT22;10494;50.868;4.180;2024-01-07T09:06:59;2.10;99.90
20670;DHT22;10494;50.868;4.180;2024-01-07T09:09:24;2.10;99.90
20670;DHT22;10494;50.868;4.180;2024-01-07T09:11:51;2.10;99.90
20670;DHT22;10494;50.868;4.180;2024-01-07T09:14:17;2.10;99.90
20670;DHT22;10494;50.868;4.180;2024-01-07T09:16:43;2.00;99.90
20670;DHT22;10494;50.868;4.180;2024-01-07T09:19:08;2.00;99.90
20670;DHT22;10494;50.868;4.180;2024-01-07T09:21:34;2.00;99.90
20670;DHT22;10494;50.868;4.180;2024-01-07T09:23:59;2.00;99.90
20670;DHT22;10494;50.868;4.180;2024-01-07T09:26:25;2.10;99.90
20670;DHT22;10494;50.868;4.180;2024-01-07T09:28:51;2.10;99.90
20670;DHT22;10494;50.868;4.180;2024-01-07T09:31:17;2.00;99.90
20670;DHT22;10494;50.868;4.180;2024-01-07T09:33:43;2.00;99.90
20670;DHT22;10494;50.868;4.180;2024-01-07T09:36:08;2.00;99.90
20670;DHT22;10494;50.868;4.180;2024-01-07T09:38:34;2.10;99.90
20670;DHT22;10494;50.868;4.180;2024-01-07T09:41:01;2.00;99.90
20670;DHT22;10494;50.868;4.180;2024-01-07T09:43:28;2.00;99.90
20670;DHT22;10494;50.868;4.180;2024-01-07T09:45:54;2.20;99.90
20670;DHT22;10494;50.868;4.180;2024-01-07T09:48:21;2.20;99.90
20670;DHT22;10494;50.868;4.180;2024-01-07T09:50:48;2.30;99.90
20670;DHT22;10494;50.868;4.180;2024-01-07T09:53:15;2.10;99.90
20670;DHT22;10494;50.868;4.180;2024-01-07T09:56:06;2.00;99.90
20670;DHT22;10494;50.868;4.180;2024-01-07T09:58:34;2.00;99.90
20670;DHT22;10494;50.868;4.180;2024-01-07T10:01:00;1.90;99.90
20670;DHT22;10494;50.868;4.180;2024-01-07T10:03:25;2.00;99.90
20670;DHT22;10494;50.868;4.180;2024-01-07T10:05:52;1.90;99.90
20670;DHT22;10494;50.868;4.180;2024-01-07T10:08:17;1.90;99.90
20670;DHT22;10494;50.868;4.180;2024-01-07T10:10:43;2.00;99.90
20670;DHT22;10494;50.868;4.180;2024-01-07T10:13:09;1.90;99.90
20670;DHT22;10494;50.868;4.180;2024-01-07T10:15:34;2.10;99.90
20670;DHT22;10494;50.868;4.180;2024-01-07T10:18:06;2.00;99.90
20670;DHT22;10494;50.868;4.180;2024-01-07T10:20:33;2.10;99.90
20670;DHT22;10494;50.868;4.180;2024-01-07T10:23:03;1.90;99.90
20670;DHT22;10494;50.868;4.180;2024-01-07T10:25:30;1.80;99.90
20670;DHT22;10494;50.868;4.180;2024-01-07T10:28:01;1.80;99.90
20670;DHT22;10494;50.868;4.180;2024-01-07T10:30:27;1.80;99.90
20670;DHT22;10494;50.868;4.180;2024-01-07T10:32:59;1.70;99.90
20670;DHT22;10494;50.868;4.180;2024-01-07T10:35:32;1.80;99.90
20670;DHT22;10494;50.868;4.180;2024-01-07T10:38:02;1.70;99.90
20670;DHT22;10494;50.868;4.180;2024-01-07T10:40:28;1.70;99.90
20670;DHT22;10494;50.868;4.180;2024-01-07T10:42:59;1.80;99.90
20670;DHT22;10494;50.868;4.180;2024-01-07T10:45:24;1.70;99.90
20670;DHT22;10494;50.868;4.180;2024-01-07T10:47:51;1.70;99.90
20670;DHT22;10494;50.868;4.180;2024-01-07T10:50:20;1.80;99.90
20670;DHT22;10494;50.868;4.180;2024-01-07T10:52:50;1.80;99.90
20670;DHT22;10494;50.868;4.180;2024-01-07T10:55:21;1.90;99.90
20670;DHT22;10494;50.868;4.180;2024-01-07T10:57:48;2.00;99.90
20670;DHT22;10494;50.868;4.180;2024-01-07T11:00:16;1.90;99.90
20670;DHT22;10494;50.868;4.180;2024-01-07T11:05:52;1.80;99.90
20670;DHT22;10494;50.868;4.180;2024-01-07T11:10:55;1.80;99.90
20670;DHT22;10494;50.868;4.180;2024-01-07T11:13:36;1.80;99.90
20670;DHT22;10494;50.868;4.180;2024-01-07T11:16:04;2.10;99.90
20670;DHT22;10494;50.868;4.180;2024-01-07T11:18:31;1.90;99.90
20670;DHT22;10494;50.868;4.180;2024-01-07T11:21:02;1.80;99.90
20670;DHT22;10494;50.868;4.180;2024-01-07T11:23:35;1.80;99.90
20670;DHT22;10494;50.868;4.180;2024-01-07T11:26:03;2.00;99.90
20670;DHT22;10494;50.868;4.180;2024-01-07T11:28:56;2.10;99.90
20670;DHT22;10494;50.868;4.180;2024-01-07T11:31:42;2.00;99.90
20670;DHT22;10494;50.868;4.180;2024-01-07T11:34:08;1.90;99.90
20670;DHT22;10494;50.868;4.180;2024-01-07T11:36:38;2.00;99.90
20670;DHT22;10494;50.868;4.180;2024-01-07T11:39:05;2.20;99.90
20670;DHT22;10494;50.868;4.180;2024-01-07T11:41:34;2.20;99.90
20670;DHT22;10494;50.868;4.180;2024-01-07T11:44:01;1.90;99.90
20670;DHT22;10494;50.868;4.180;2024-01-07T11:46:27;1.90;99.90
20670;DHT22;10494;50.868;4.180;2024-01-07T11:48:55;1.80;99.90
20670;DHT22;10494;50.868;4.180;2024-01-07T11:51:28;1.70;99.90
20670;DHT22;10494;50.868;4.180;2024-01-07T11:53:54;1.60;99.90
20670;DHT22;10494;50.868;4.180;2024-01-07T11:56:20;1.60;99.90
20670;DHT22;10494;50.868;4.180;2024-01-07T11:58:46;1.70;99.90
20670;DHT22;10494;50.868;4.180;2024-01-07T12:01:11;1.80;99.90
20670;DHT22;10494;50.868;4.180;2024-01-07T12:03:39;1.60;99.90
20670;DHT22;10494;50.868;4.180;2024-01-07T12:06:06;1.60;99.90
20670;DHT22;10494;50.868;4.180;2024-01-07T12:08:32;1.60;99.90
20670;DHT22;10494;50.868;4.180;2024-01-07T12:10:59;1.60;99.90
20670;DHT22;10494;50.868;4.180;2024-01-07T12:13:25;1.80;99.90
20670;DHT22;10494;50.868;4.180;2024-01-07T12:15:51;1.80;99.90
20670;DHT22;10494;50.868;4.180;2024-01-07T12:18:16;1.90;99.90
20670;DHT22;10494;50.868;4.180;2024-01-07T12:20:53;2.10;99.90
20670;DHT22;10494;50.868;4.180;2024-01-07T12:23:19;2.00;99.90
20670;DHT22;10494;50.868;4.180;2024-01-07T12:25:45;2.00;99.90
20670;DHT22;10494;50.868;4.180;2024-01-07T12:28:10;2.00;99.90
20670;DHT22;10494;50.868;4.180;2024-01-07T12:30:36;1.90;99.90
20670;DHT22;10494;50.868;4.180;2024-01-07T12:33:05;1.70;99.90
20670;DHT22;10494;50.868;4.180;2024-01-07T12:35:31;1.60;99.90
20670;DHT22;10494;50.868;4.180;2024-01-07T12:37:56;1.60;99.90
20670;DHT22;10494;50.868;4.180;2024-01-07T12:40:25;1.70;99.90
20670;DHT22;10494;50.868;4.180;2024-01-07T12:42:53;1.60;99.90
20670;DHT22;10494;50.868;4.180;2024-01-07T12:45:19;1.70;99.90
20670;DHT22;10494;50.868;4.180;2024-01-07T12:47:45;1.70;99.90
20670;DHT22;10494;50.868;4.180;2024-01-07T12:50:13;1.70;99.90
20670;DHT22;10494;50.868;4.180;2024-01-07T12:52:39;1.80;99.90
20670;DHT22;10494;50.868;4.180;2024-01-07T12:55:06;2.00;99.90
20670;DHT22;10494;50.868;4.180;2024-01-07T12:57:33;2.00;99.90
20670;DHT22;10494;50.868;4.180;2024-01-07T13:00:02;1.80;99.90
20670;DHT22;10494;50.868;4.180;2024-01-07T13:02:32;1.90;99.90
20670;DHT22;10494;50.868;4.180;2024-01-07T13:04:58;2.00;99.90
20670;DHT22;10494;50.868;4.180;2024-01-07T13:07:24;2.10;99.90
20670;DHT22;10494;50.868;4.180;2024-01-07T13:09:51;2.30;99.90
20670;DHT22;10494;50.868;4.180;2024-01-07T13:12:16;2.30;99.90
20670;DHT22;10494;50.868;4.180;2024-01-07T13:14:42;2.30;99.90
20670;DHT22;10494;50.868;4.180;2024-01-07T13:17:08;2.20;99.90
20670;DHT22;10494;50.868;4.180;2024-01-07T13:19:34;2.00;99.90
20670;DHT22;10494;50.868;4.180;2024-01-07T13:21:59;1.90;99.90
20670;DHT22;10494;50.868;4.180;2024-01-07T13:24:28;2.10;99.90
20670;DHT22;10494;50.868;4.180;2024-01-07T13:26:53;2.00;99.90
20670;DHT22;10494;50.868;4.180;2024-01-07T13:29:19;2.00;99.90
20670;DHT22;10494;50.868;4.180;2024-01-07T13:31:45;2.00;99.90
20670;DHT22;10494;50.868;4.180;2024-01-07T13:34:10;2.00;99.90
20670;DHT22;10494;50.868;4.180;2024-01-07T13:36:36;1.80;99.90
20670;DHT22;10494;50.868;4.180;2024-01-07T13:39:02;2.00;99.90
20670;DHT22;10494;50.868;4.180;2024-01-07T13:41:28;1.80;99.90
20670;DHT22;10494;50.868;4.180;2024-01-07T13:43:57;1.90;99.90
20670;DHT22;10494;50.868;4.180;2024-01-07T13:46:23;2.10;99.90
20670;DHT22;10494;50.868;4.180;2024-01-07T13:48:50;2.20;99.90
20670;DHT22;10494;50.868;4.180;2024-01-07T13:51:17;2.00;99.90
20670;DHT22;10494;50.868;4.180;2024-01-07T13:53:43;2.30;99.90
20670;DHT22;10494;50.868;4.180;2024-01-07T13:56:11;2.10;99.90
20670;DHT22;10494;50.868;4.180;2024-01-07T13:58:36;2.40;99.90
20670;DHT22;10494;50.868;4.180;2024-01-07T14:01:02;2.60;98.10
20670;DHT22;10494;50.868;4.180;2024-01-07T14:03:28;2.40;91.70
20670;DHT22;10494;50.868;4.180;2024-01-07T14:05:55;2.10;99.90
20670;DHT22;10494;50.868;4.180;2024-01-07T14:08:21;2.10;99.90
20670;DHT22;10494;50.868;4.180;2024-01-07T14:10:47;1.90;99.90
20670;DHT22;10494;50.868;4.180;2024-01-07T14:13:14;2.00;99.90
20670;DHT22;10494;50.868;4.180;2024-01-07T14:15:39;1.90;99.90
20670;DHT22;10494;50.868;4.180;2024-01-07T14:18:05;1.70;99.90
20670;DHT22;10494;50.868;4.180;2024-01-07T14:20:30;1.80;99.90
20670;DHT22;10494;50.868;4.180;2024-01-07T14:22:56;1.70;99.90
20670;DHT22;10494;50.868;4.180;2024-01-07T14:25:22;1.70;99.90
20670;DHT22;10494;50.868;4.180;2024-01-07T14:27:47;1.80;99.90
20670;DHT22;10494;50.868;4.180;2024-01-07T14:30:13;2.00;99.90
20670;DHT22;10494;50.868;4.180;2024-01-07T14:32:42;2.00;99.90
20670;DHT22;10494;50.868;4.180;2024-01-07T14:35:08;2.10;94.10
20670;DHT22;10494;50.868;4.180;2024-01-07T14:37:33;2.00;99.90
20670;DHT22;10494;50.868;4.180;2024-01-07T14:39:59;2.10;88.40
20670;DHT22;10494;50.868;4.180;2024-01-07T14:42:25;2.10;99.90
20670;DHT22;10494;50.868;4.180;2024-01-07T14:44:50;2.00;99.90
20670;DHT22;10494;50.868;4.180;2024-01-07T14:47:16;1.90;99.90
20670;DHT22;10494;50.868;4.180;2024-01-07T14:49:43;1.90;99.90
20670;DHT22;10494;50.868;4.180;2024-01-07T14:52:08;1.90;99.90
20670;DHT22;10494;50.868;4.180;2024-01-07T14:54:34;2.00;99.90
20670;DHT22;10494;50.868;4.180;2024-01-07T14:57:01;2.00;99.90
20670;DHT22;10494;50.868;4.180;2024-01-07T14:59:26;1.80;99.90
20670;DHT22;10494;50.868;4.180;2024-01-07T15:01:52;1.80;99.90
20670;DHT22;10494;50.868;4.180;2024-01-07T15:04:19;1.70;99.90
20670;DHT22;10494;50.868;4.180;2024-01-07T15:06:44;1.50;99.90
20670;DHT22;10494;50.868;4.180;2024-01-07T15:09:12;1.50;99.90
20670;DHT22;10494;50.868;4.180;2024-01-07T15:11:40;1.60;99.90
20670;DHT22;10494;50.868;4.180;2024-01-07T15:14:08;1.80;94.70
20670;DHT22;10494;50.868;4.180;2024-01-07T15:16:37;1.80;99.10
20670;DHT22;10494;50.868;4.180;2024-01-07T15:19:03;1.70;97.40
20670;DHT22;10494;50.868;4.180;2024-01-07T15:21:29;1.90;99.90
20670;DHT22;10494;50.868;4.180;2024-01-07T15:23:55;1.90;92.50
20670;DHT22;10494;50.868;4.180;2024-01-07T15:26:20;1.70;98.10
20670;DHT22;10494;50.868;4.180;2024-01-07T15:28:46;1.80;99.90
20670;DHT22;10494;50.868;4.180;2024-01-07T15:31:12;1.70;91.80
20670;DHT22;10494;50.868;4.180;2024-01-07T15:33:37;1.60;99.90
20670;DHT22;10494;50.868;4.180;2024-01-07T15:36:03;1.60;99.90
20670;DHT22;10494;50.868;4.180;2024-01-07T15:38:29;1.60;97.80
20670;DHT22;10494;50.868;4.180;2024-01-07T15:40:55;1.70;98.90
20670;DHT22;10494;50.868;4.180;2024-01-07T15:43:21;1.70;97.20
20670;DHT22;10494;50.868;4.180;2024-01-07T15:45:46;1.70;89.60